C62

Kendallville Municipal Airport

Kendallville, Indiana, USA
METAR KC62 181335Z AUTO 26003KT 3SM BR SCT011 OVC021 M01/M02 A3009 RMK AO2 T10081024
Observed Flight Rules
Jan-18 @ 13:35 UTC (43 minutes ago) Marginal Visual Flight Rules
Wind Visibility Clouds Conditions
260° at 3 knots 3 miles
  • Scattered at 1,100' AGL
  • Overcast at 2,100' AGL
  • Mist
Temperatures Readings
Current -1°C / 30°F
Dewpoint -2°C / 28°F
Humidity 93%
Altimeter 30.09" Hg
Pressure 1018.92 hPa
Elevation 306
METAR KC62 181335Z AUTO 26003KT 3SM BR SCT011 OVC021 M01/M02 A3009 RMK AO2 T10081024
Observed Flight Rules
Jan-18 @ 13:35 UTC
(43 minutes ago)
MVFR
Wind Visibility
260° at 3 knots 3 miles
Clouds
  • Scattered at 1,100' AGL
  • Overcast at 2,100' AGL
Conditions
  • Mist
Temperature Dewpoint
-1°C / 30°F -2°C / 28°F
Humidity Altimeter Pressure
93% 30.09" Hg 1018.92 hPa